createdAt,value
2018-12-17T00:00:43.927Z,46.73
2018-12-17T00:03:13.415Z,44.97
2018-12-17T00:05:43.293Z,43.90
2018-12-17T00:08:13.210Z,43.53
2018-12-17T00:10:42.813Z,48.27
2018-12-17T00:13:12.475Z,47.23
2018-12-17T00:15:41.904Z,53.07
2018-12-17T00:18:11.373Z,52.40
2018-12-17T00:20:41.148Z,49.70
2018-12-17T00:23:10.913Z,46.93
2018-12-17T00:25:40.510Z,48.67
2018-12-17T00:28:10.453Z,47.93
2018-12-17T00:30:40.366Z,47.90
2018-12-17T00:33:10.121Z,46.10
2018-12-17T00:35:40.297Z,43.50
2018-12-17T00:38:09.999Z,48.00
2018-12-17T00:40:40.045Z,52.67
2018-12-17T00:43:09.723Z,46.47
2018-12-17T00:45:39.317Z,46.80
2018-12-17T00:48:08.939Z,47.13
2018-12-17T00:50:38.648Z,43.33
2018-12-17T00:53:08.069Z,46.77
2018-12-17T00:55:37.677Z,44.60
2018-12-17T00:58:07.508Z,49.50
2018-12-17T01:00:39.038Z,44.60
2018-12-17T01:03:08.686Z,47.17
2018-12-17T01:05:38.000Z,52.37
2018-12-17T01:08:07.752Z,54.83
2018-12-17T01:10:37.285Z,50.20
2018-12-17T01:13:07.157Z,50.90
2018-12-17T01:15:36.694Z,47.17
2018-12-17T01:18:06.002Z,47.23
2018-12-17T01:20:35.660Z,47.07
2018-12-17T01:23:05.187Z,55.17
2018-12-17T01:25:34.565Z,51.17
2018-12-17T01:28:03.970Z,54.27
2018-12-17T01:30:33.699Z,55.00
2018-12-17T01:33:03.166Z,45.47
2018-12-17T01:35:32.908Z,45.67
2018-12-17T01:38:02.353Z,46.53
2018-12-17T01:40:32.132Z,49.80
2018-12-17T01:43:01.978Z,45.97
2018-12-17T01:45:31.521Z,47.10
2018-12-17T01:48:00.901Z,43.90
2018-12-17T01:50:30.593Z,46.73
2018-12-17T01:53:00.077Z,43.97
2018-12-17T01:55:29.669Z,51.17
2018-12-17T01:57:59.737Z,48.33
2018-12-17T02:00:29.500Z,43.37
2018-12-17T02:02:59.096Z,40.17
2018-12-17T02:05:29.056Z,47.10
2018-12-17T02:07:58.159Z,48.10
2018-12-17T02:10:28.020Z,49.77
2018-12-17T02:12:57.174Z,46.27
2018-12-17T02:15:26.887Z,47.70
2018-12-17T02:17:56.634Z,48.60
2018-12-17T02:20:26.528Z,46.80
2018-12-17T02:22:56.218Z,48.90
2018-12-17T02:25:25.779Z,44.27
2018-12-17T02:27:56.062Z,43.80
2018-12-17T02:30:25.499Z,51.20
2018-12-17T02:32:55.021Z,46.27
2018-12-17T02:35:25.199Z,46.13
2018-12-17T02:37:55.144Z,49.13
2018-12-17T02:40:25.149Z,45.13
2018-12-17T02:42:54.919Z,43.43
2018-12-17T02:45:24.645Z,48.23
2018-12-17T02:47:54.035Z,43.60
2018-12-17T02:50:23.650Z,43.13
2018-12-17T02:52:52.984Z,41.77
2018-12-17T02:55:22.511Z,43.60
2018-12-17T02:57:52.400Z,41.83
2018-12-17T03:00:22.376Z,44.30
2018-12-17T03:02:52.105Z,38.90
2018-12-17T03:05:22.047Z,44.70
2018-12-17T03:07:51.745Z,40.93
2018-12-17T03:10:21.372Z,37.30
2018-12-17T03:12:51.231Z,35.17
2018-12-17T03:15:20.876Z,37.07
2018-12-17T03:17:50.545Z,38.80
2018-12-17T03:20:20.453Z,37.87
2018-12-17T03:22:49.732Z,35.23
2018-12-17T03:25:19.245Z,34.93
2018-12-17T03:27:48.645Z,36.60
2018-12-17T03:30:17.965Z,32.70
2018-12-17T03:32:47.540Z,32.13
2018-12-17T03:35:17.139Z,31.87
2018-12-17T03:37:46.460Z,36.93
2018-12-17T03:40:15.868Z,31.33
2018-12-17T03:42:45.224Z,29.33
2018-12-17T03:45:14.590Z,33.20
2018-12-17T03:47:44.232Z,29.73
2018-12-17T03:50:14.214Z,30.77
2018-12-17T03:52:43.647Z,37.20
2018-12-17T03:55:13.360Z,34.87
2018-12-17T03:57:42.917Z,35.93
2018-12-17T04:00:12.361Z,33.80
2018-12-17T04:02:42.186Z,27.87
2018-12-17T04:05:11.712Z,31.97
2018-12-17T04:07:41.280Z,28.50
2018-12-17T04:10:10.677Z,28.27
2018-12-17T04:12:41.604Z,30.17
2018-12-17T04:15:11.522Z,27.57
2018-12-17T04:17:41.352Z,29.47
2018-12-17T04:20:10.909Z,33.40
2018-12-17T04:22:40.603Z,29.80
2018-12-17T04:25:10.767Z,29.57
2018-12-17T04:27:40.400Z,31.07
2018-12-17T04:30:10.092Z,28.63
2018-12-17T04:32:39.712Z,28.30
2018-12-17T04:35:09.782Z,34.30
2018-12-17T04:37:39.264Z,28.10
2018-12-17T04:40:09.048Z,30.53
2018-12-17T04:42:38.204Z,32.60
2018-12-17T04:45:08.006Z,32.83
2018-12-17T04:47:37.970Z,30.83
2018-12-17T04:50:07.983Z,31.00
2018-12-17T04:52:38.014Z,31.60
2018-12-17T04:55:07.928Z,34.13
2018-12-17T04:57:38.292Z,33.50
2018-12-17T05:00:09.660Z,30.37
2018-12-17T05:02:38.962Z,31.70
2018-12-17T05:05:08.663Z,30.97
2018-12-17T05:07:38.162Z,32.00
2018-12-17T05:10:07.936Z,30.33
2018-12-17T05:12:37.493Z,32.67
2018-12-17T05:15:07.856Z,32.83
2018-12-17T05:17:37.124Z,35.43
2018-12-17T05:20:28.440Z,33.13
2018-12-17T05:22:58.270Z,29.87
2018-12-17T05:25:27.856Z,35.47
2018-12-17T05:27:57.618Z,31.47
2018-12-17T05:30:27.086Z,32.23
2018-12-17T05:32:57.609Z,34.50
2018-12-17T05:35:27.589Z,38.83
2018-12-17T05:37:56.996Z,31.30
2018-12-17T05:40:26.710Z,32.67
2018-12-17T05:42:56.214Z,33.60
2018-12-17T05:45:25.623Z,35.27
2018-12-17T05:47:55.250Z,36.50
2018-12-17T05:50:24.903Z,34.30
2018-12-17T05:52:54.408Z,33.60
2018-12-17T05:55:24.089Z,33.07
2018-12-17T05:57:53.588Z,31.47
2018-12-17T06:00:24.403Z,35.93
2018-12-17T06:02:54.230Z,32.47
2018-12-17T06:05:23.780Z,35.17
2018-12-17T06:07:53.160Z,31.83
2018-12-17T06:10:22.377Z,32.67
2018-12-17T06:12:51.539Z,33.87
2018-12-17T06:15:20.746Z,33.97
2018-12-17T06:17:50.021Z,27.73
2018-12-17T06:20:19.049Z,35.60
2018-12-17T06:22:48.124Z,33.57
2018-12-17T06:25:17.339Z,36.50
2018-12-17T06:27:46.815Z,36.03
2018-12-17T06:30:15.913Z,35.03
2018-12-17T06:32:45.240Z,35.27
2018-12-17T06:35:14.365Z,35.27
2018-12-17T06:37:43.818Z,35.50
2018-12-17T06:40:13.165Z,36.63
2018-12-17T06:42:42.433Z,36.23
2018-12-17T06:45:12.027Z,41.70
2018-12-17T06:47:41.558Z,34.23
2018-12-17T06:50:10.731Z,34.37
2018-12-17T06:52:40.924Z,34.97
2018-12-17T06:55:10.571Z,38.70
2018-12-17T06:57:40.038Z,37.47
2018-12-17T07:00:09.527Z,40.57
2018-12-17T07:02:38.702Z,36.77
2018-12-17T07:05:07.941Z,40.97
2018-12-17T07:07:38.090Z,34.10
2018-12-17T07:10:07.663Z,40.17
2018-12-17T07:12:37.186Z,37.83
2018-12-17T07:15:07.279Z,33.97
2018-12-17T07:17:36.524Z,32.80
2018-12-17T07:20:06.783Z,37.40
2018-12-17T07:22:36.338Z,32.53
2018-12-17T07:25:06.204Z,34.87
2018-12-17T07:27:35.631Z,36.13
2018-12-17T07:30:06.042Z,34.70
2018-12-17T07:32:35.708Z,32.07
2018-12-17T07:35:05.729Z,33.50
2018-12-17T07:37:35.609Z,33.23
2018-12-17T07:40:05.816Z,34.23
2018-12-17T07:42:35.520Z,33.17
2018-12-17T07:45:06.192Z,31.47
2018-12-17T07:47:36.438Z,34.50
2018-12-17T07:50:06.937Z,32.23
2018-12-17T07:52:36.363Z,37.60
2018-12-17T07:55:06.331Z,30.87
2018-12-17T07:57:35.773Z,36.03
2018-12-17T08:00:07.833Z,31.77
2018-12-17T08:02:37.785Z,32.37
2018-12-17T08:05:08.527Z,33.90
2018-12-17T08:07:38.735Z,29.97
2018-12-17T08:10:09.281Z,33.30
2018-12-17T08:12:38.895Z,36.87
2018-12-17T08:15:09.145Z,33.33
2018-12-17T08:17:38.436Z,28.87
2018-12-17T08:20:08.443Z,32.70
2018-12-17T08:22:38.670Z,29.57
2018-12-17T08:25:10.094Z,33.00
2018-12-17T08:27:40.102Z,29.87
2018-12-17T08:30:10.834Z,35.27
2018-12-17T08:32:41.438Z,34.87
2018-12-17T08:35:11.823Z,30.47
2018-12-17T08:37:42.206Z,32.47
2018-12-17T08:40:12.183Z,33.50
2018-12-17T08:42:42.351Z,31.97
2018-12-17T08:45:12.822Z,27.13
2018-12-17T08:47:42.528Z,33.00
2018-12-17T08:50:12.444Z,33.47
2018-12-17T08:52:42.350Z,30.00
2018-12-17T08:55:12.378Z,31.33
2018-12-17T08:57:42.108Z,31.73
2018-12-17T09:00:12.578Z,28.70
2018-12-17T09:02:43.205Z,31.47
2018-12-17T09:05:13.767Z,29.40
2018-12-17T09:07:43.477Z,31.50
2018-12-17T09:10:13.312Z,29.97
2018-12-17T09:12:42.978Z,30.50
2018-12-17T09:15:13.326Z,28.80
2018-12-17T09:17:43.299Z,31.10
2018-12-17T09:20:13.662Z,28.00
2018-12-17T09:22:44.305Z,25.93
2018-12-17T09:25:14.833Z,32.03
2018-12-17T09:27:44.850Z,30.53
2018-12-17T09:30:18.561Z,26.70
2018-12-17T09:32:49.002Z,28.13
2018-12-17T09:35:19.314Z,25.43
2018-12-17T09:37:49.508Z,26.37
2018-12-17T09:40:18.974Z,23.87
2018-12-17T09:42:48.834Z,31.77
2018-12-17T09:45:19.184Z,29.43
2018-12-17T09:47:49.674Z,26.10
2018-12-17T09:50:21.242Z,26.17
2018-12-17T09:52:51.256Z,25.03
2018-12-17T09:55:22.480Z,26.03
2018-12-17T09:57:52.176Z,27.67
2018-12-17T10:00:25.500Z,24.10
2018-12-17T10:02:54.859Z,22.30
2018-12-17T10:05:25.264Z,21.50
2018-12-17T10:07:55.338Z,20.10
2018-12-17T10:10:26.298Z,24.07
2018-12-17T10:12:56.365Z,22.13
2018-12-17T10:15:26.633Z,20.70
2018-12-17T10:17:56.818Z,19.53
2018-12-17T10:20:26.639Z,20.37
2018-12-17T10:22:57.048Z,15.70
2018-12-17T10:25:27.178Z,19.00
2018-12-17T10:27:56.616Z,21.07
2018-12-17T10:30:32.270Z,13.80
2018-12-17T10:32:58.430Z,13.40
2018-12-17T10:35:29.345Z,14.03
2018-12-17T10:37:59.456Z,15.23
2018-12-17T10:40:29.481Z,14.40
2018-12-17T10:42:59.557Z,13.00
2018-12-17T10:45:29.750Z,15.20
2018-12-17T10:47:59.648Z,14.87
2018-12-17T10:50:29.848Z,14.53
2018-12-17T10:52:59.592Z,14.23
2018-12-17T10:55:29.938Z,15.27
2018-12-17T10:58:00.205Z,14.10
2018-12-17T11:00:39.385Z,14.57
2018-12-17T11:03:11.746Z,11.70
2018-12-17T11:05:43.562Z,16.00
2018-12-17T11:08:13.724Z,14.07
2018-12-17T11:10:44.624Z,12.87
2018-12-17T11:13:14.998Z,12.13
2018-12-17T11:15:45.187Z,11.10
2018-12-17T11:18:15.380Z,13.17
2018-12-17T11:20:45.446Z,11.63
2018-12-17T11:23:15.768Z,15.20
2018-12-17T11:25:46.016Z,12.83
2018-12-17T11:28:18.282Z,11.43
2018-12-17T11:30:48.631Z,10.83
2018-12-17T11:33:18.886Z,12.27
2018-12-17T11:35:48.785Z,12.33
2018-12-17T11:38:18.794Z,14.00
2018-12-17T11:40:49.138Z,13.47
2018-12-17T11:43:19.284Z,12.53
2018-12-17T11:45:48.788Z,13.50
2018-12-17T11:48:18.698Z,22.00
2018-12-17T11:50:48.322Z,11.63
2018-12-17T11:53:18.088Z,12.97
2018-12-17T11:55:47.905Z,11.60
2018-12-17T11:58:17.573Z,12.10
2018-12-17T12:00:54.606Z,14.27
2018-12-17T12:03:24.655Z,12.73
2018-12-17T12:05:54.298Z,12.30
2018-12-17T12:08:23.736Z,11.07
2018-12-17T12:10:53.451Z,11.43
2018-12-17T12:13:23.090Z,11.23
2018-12-17T12:15:52.738Z,9.80
2018-12-17T12:18:22.225Z,9.03
2018-12-17T12:20:51.987Z,11.30
2018-12-17T12:23:21.513Z,10.30
2018-12-17T12:25:51.181Z,8.80
2018-12-17T12:28:20.887Z,9.67
2018-12-17T12:30:50.892Z,9.50
2018-12-17T12:33:20.623Z,9.30
2018-12-17T12:35:50.500Z,8.53
2018-12-17T12:38:20.379Z,8.50
2018-12-17T12:40:50.214Z,9.57
2018-12-17T12:43:19.992Z,10.23
2018-12-17T12:45:49.853Z,10.10
2018-12-17T12:48:19.662Z,10.97
2018-12-17T12:50:49.158Z,10.17
2018-12-17T12:53:18.651Z,9.43
2018-12-17T12:55:48.379Z,11.43
2018-12-17T12:58:17.997Z,9.37
2018-12-17T13:00:47.953Z,9.93
2018-12-17T13:03:17.915Z,9.13
2018-12-17T13:05:47.409Z,9.47
2018-12-17T13:08:17.117Z,7.50
2018-12-17T13:10:46.863Z,8.03
2018-12-17T13:13:16.250Z,7.80
2018-12-17T13:15:45.895Z,9.90
2018-12-17T13:18:15.600Z,7.80
2018-12-17T13:20:45.285Z,8.43
2018-12-17T13:23:15.122Z,9.70
2018-12-17T13:25:48.702Z,9.87
2018-12-17T13:28:18.317Z,8.33
2018-12-17T13:30:47.893Z,9.33
2018-12-17T13:33:17.701Z,8.60
2018-12-17T13:35:47.335Z,9.17
2018-12-17T13:38:16.763Z,11.50
2018-12-17T13:40:46.150Z,9.03
2018-12-17T13:43:15.861Z,10.70
2018-12-17T13:45:45.569Z,8.17
2018-12-17T13:48:15.597Z,9.23
2018-12-17T13:50:45.358Z,8.57
2018-12-17T13:53:20.465Z,10.03
2018-12-17T13:55:50.520Z,8.93
2018-12-17T13:58:20.621Z,11.17
2018-12-17T14:00:50.774Z,10.23
2018-12-17T14:03:21.073Z,10.47
2018-12-17T14:05:50.955Z,11.43
2018-12-17T14:08:20.840Z,12.30
2018-12-17T14:10:53.855Z,12.30
2018-12-17T14:13:25.249Z,11.70
2018-12-17T14:18:50.800Z,15.30
2018-12-17T14:21:25.844Z,15.27
2018-12-17T14:23:55.629Z,10.90
2018-12-17T14:26:25.358Z,13.07
2018-12-17T14:28:54.973Z,14.70
2018-12-17T14:31:28.875Z,14.87
2018-12-17T14:33:56.338Z,13.67
2018-12-17T14:36:25.958Z,13.17
2018-12-17T14:38:55.682Z,12.13
2018-12-17T14:41:25.261Z,11.20
2018-12-17T14:43:59.145Z,13.27
2018-12-17T14:46:30.572Z,11.53
2018-12-17T14:48:59.872Z,11.73
2018-12-17T14:51:29.196Z,12.60
2018-12-17T14:53:58.530Z,15.80
2018-12-17T14:56:28.271Z,14.80
2018-12-17T14:58:57.777Z,14.43
2018-12-17T15:01:27.190Z,11.37
2018-12-17T15:03:56.299Z,11.33
2018-12-17T15:06:25.456Z,16.27
2018-12-17T15:08:54.659Z,11.10
2018-12-17T15:11:23.955Z,14.20
2018-12-17T15:13:53.175Z,10.40
2018-12-17T15:16:22.205Z,11.27
2018-12-17T15:18:51.586Z,14.27
2018-12-17T15:21:21.111Z,12.00
2018-12-17T15:23:50.338Z,12.33
2018-12-17T15:26:19.583Z,10.43
2018-12-17T15:28:48.767Z,8.77
2018-12-17T15:31:18.074Z,10.33
2018-12-17T15:33:47.443Z,12.97
2018-12-17T15:36:16.840Z,11.53
2018-12-17T15:38:45.985Z,10.40
2018-12-17T15:41:15.225Z,8.93
2018-12-17T15:43:44.400Z,8.63
2018-12-17T15:46:13.464Z,10.33
2018-12-17T15:48:42.619Z,11.40
2018-12-17T15:51:12.104Z,8.90
2018-12-17T15:53:41.079Z,11.37
2018-12-17T15:56:10.186Z,10.13
2018-12-17T15:58:39.545Z,9.70
2018-12-17T16:01:09.066Z,11.00
2018-12-17T16:03:38.191Z,11.13
2018-12-17T16:06:07.762Z,10.17
2018-12-17T16:08:37.328Z,10.73
2018-12-17T16:11:06.469Z,9.43
2018-12-17T16:13:36.506Z,10.90
2018-12-17T16:16:05.533Z,8.40
2018-12-17T16:18:35.352Z,9.90
2018-12-17T16:21:04.754Z,10.60
2018-12-17T16:23:34.448Z,8.13
2018-12-17T16:26:03.695Z,11.53
2018-12-17T16:28:32.759Z,8.90
2018-12-17T16:31:02.106Z,9.47
2018-12-17T16:33:31.359Z,9.57
2018-12-17T16:36:00.519Z,10.63
2018-12-17T16:38:29.795Z,11.33
2018-12-17T16:40:59.168Z,10.10
2018-12-17T16:43:29.244Z,10.67
2018-12-17T16:45:58.676Z,10.27
2018-12-17T16:48:27.881Z,9.90
2018-12-17T16:50:57.220Z,9.27
2018-12-17T16:53:26.796Z,10.20
2018-12-17T16:55:56.293Z,9.10
2018-12-17T16:58:25.576Z,12.13
2018-12-17T17:00:54.799Z,8.70
2018-12-17T17:03:24.011Z,8.43
2018-12-17T17:05:53.034Z,8.67
2018-12-17T17:08:22.783Z,11.80
2018-12-17T17:10:51.894Z,10.57
2018-12-17T17:13:21.420Z,9.50
2018-12-17T17:15:50.820Z,9.07
2018-12-17T17:18:19.865Z,8.80
2018-12-17T17:20:49.122Z,7.67
2018-12-17T17:23:18.387Z,10.47
2018-12-17T17:25:48.021Z,9.40
2018-12-17T17:28:17.201Z,8.73
2018-12-17T17:30:46.683Z,8.47
2018-12-17T17:33:16.099Z,11.13
2018-12-17T17:35:45.243Z,12.47
2018-12-17T17:38:14.666Z,9.57
2018-12-17T17:40:43.948Z,10.07
2018-12-17T17:43:13.294Z,11.70
2018-12-17T17:45:42.906Z,10.03
2018-12-17T17:48:12.276Z,10.80
2018-12-17T17:50:41.491Z,10.30
2018-12-17T17:53:10.600Z,11.27
2018-12-17T17:55:39.881Z,12.17
2018-12-17T17:58:09.222Z,8.70
2018-12-17T18:00:38.337Z,9.37
2018-12-17T18:03:07.569Z,9.37
2018-12-17T18:05:36.879Z,11.07
2018-12-17T18:08:06.153Z,11.33
2018-12-17T18:10:35.412Z,11.27
2018-12-17T18:13:04.635Z,10.93
2018-12-17T18:15:33.780Z,11.47
2018-12-17T18:18:02.939Z,11.17
2018-12-17T18:20:33.135Z,11.27
2018-12-17T18:23:02.499Z,11.27
2018-12-17T18:25:31.864Z,12.87
2018-12-17T18:28:00.961Z,14.37
2018-12-17T18:30:30.181Z,13.67
2018-12-17T18:32:59.467Z,15.40
2018-12-17T18:35:28.888Z,14.43
2018-12-17T18:37:58.190Z,14.33
2018-12-17T18:40:27.839Z,13.80
2018-12-17T18:42:57.379Z,14.80
2018-12-17T18:45:27.184Z,15.33
2018-12-17T18:47:56.744Z,13.93
2018-12-17T18:50:26.538Z,13.67
2018-12-17T18:52:55.957Z,14.77
2018-12-17T18:55:25.264Z,13.50
2018-12-17T18:57:55.719Z,14.93
2018-12-17T19:00:25.427Z,14.77
2018-12-17T19:02:55.208Z,15.73
2018-12-17T19:05:24.552Z,16.70
2018-12-17T19:07:54.444Z,15.40
2018-12-17T19:10:25.879Z,19.43
2018-12-17T19:12:55.399Z,16.40
2018-12-17T19:15:24.780Z,19.53
2018-12-17T19:17:53.983Z,21.43
2018-12-17T19:20:23.303Z,21.10
2018-12-17T19:22:52.988Z,22.27
2018-12-17T19:25:22.429Z,20.40
2018-12-17T19:27:51.691Z,21.60
2018-12-17T19:30:21.152Z,21.17
2018-12-17T19:32:50.577Z,23.00
2018-12-17T19:35:20.093Z,21.87
2018-12-17T19:37:49.409Z,21.70
2018-12-17T19:40:18.767Z,24.10
2018-12-17T19:42:48.029Z,19.27
2018-12-17T19:45:18.019Z,22.27
2018-12-17T19:47:47.731Z,21.70
2018-12-17T19:50:17.075Z,19.00
2018-12-17T19:52:46.571Z,19.67
2018-12-17T19:55:16.242Z,18.77
2018-12-17T19:57:46.330Z,19.90
2018-12-17T20:00:15.542Z,19.53
2018-12-17T20:02:47.158Z,25.73
2018-12-17T20:05:16.402Z,34.37
2018-12-17T20:07:46.372Z,33.20
2018-12-17T20:10:23.850Z,26.77
2018-12-17T20:12:53.921Z,29.27
2018-12-17T20:15:23.285Z,26.33
2018-12-17T20:17:52.678Z,19.93
2018-12-17T20:20:21.983Z,19.03
2018-12-17T20:22:51.250Z,20.60
2018-12-17T20:25:20.946Z,21.10
2018-12-17T20:27:50.348Z,22.57
2018-12-17T20:30:19.584Z,20.27
2018-12-17T20:32:53.523Z,20.40
2018-12-17T20:35:20.677Z,19.43
2018-12-17T20:37:49.896Z,19.07
2018-12-17T20:40:19.642Z,19.97
2018-12-17T20:42:49.157Z,19.57
2018-12-17T20:45:18.233Z,20.50
2018-12-17T20:47:47.400Z,23.00
2018-12-17T20:50:17.262Z,21.47
2018-12-17T20:52:46.837Z,22.67
2018-12-17T20:55:16.907Z,29.73
2018-12-17T20:57:46.341Z,31.37
2018-12-17T21:00:16.050Z,43.83
2018-12-17T21:02:45.679Z,43.57
2018-12-17T21:05:15.468Z,40.73
2018-12-17T21:07:44.781Z,48.80
2018-12-17T21:10:14.500Z,44.87
2018-12-17T21:12:43.778Z,27.97
2018-12-17T21:15:13.284Z,28.97
2018-12-17T21:17:42.768Z,28.33
2018-12-17T21:20:12.791Z,23.53
2018-12-17T21:22:42.224Z,32.23
2018-12-17T21:25:11.810Z,38.67
2018-12-17T21:27:42.046Z,38.73
2018-12-17T21:30:11.599Z,48.97
2018-12-17T21:32:41.256Z,29.00
2018-12-17T21:35:10.909Z,25.77
2018-12-17T21:37:40.140Z,23.07
2018-12-17T21:40:09.479Z,24.30
2018-12-17T21:42:39.062Z,26.60
2018-12-17T21:45:08.968Z,25.77
2018-12-17T21:47:38.425Z,26.60
2018-12-17T21:50:08.314Z,26.60
2018-12-17T21:52:37.546Z,23.87
2018-12-17T21:55:07.424Z,25.03
2018-12-17T21:57:36.953Z,24.47
2018-12-17T22:00:07.511Z,27.23
2018-12-17T22:02:36.997Z,30.30
2018-12-17T22:05:07.289Z,27.17
2018-12-17T22:07:36.569Z,27.97
2018-12-17T22:10:06.887Z,29.53
2018-12-17T22:12:36.409Z,27.03
2018-12-17T22:15:06.102Z,29.63
2018-12-17T22:17:35.705Z,28.27
2018-12-17T22:20:05.273Z,30.27
2018-12-17T22:22:35.365Z,29.17
2018-12-17T22:25:05.323Z,30.93
2018-12-17T22:27:35.129Z,30.13
2018-12-17T22:30:05.139Z,29.33
2018-12-17T22:32:34.890Z,32.53
2018-12-17T22:35:04.673Z,30.23
2018-12-17T22:37:33.831Z,34.07
2018-12-17T22:40:03.399Z,29.47
2018-12-17T22:42:33.312Z,30.33
2018-12-17T22:45:02.852Z,36.63
2018-12-17T22:47:32.199Z,34.10
2018-12-17T22:50:01.564Z,37.73
2018-12-17T22:52:31.133Z,51.67
2018-12-17T22:55:00.735Z,74.57
2018-12-17T22:57:30.248Z,129.17
2018-12-17T22:59:59.618Z,173.63
2018-12-17T23:02:29.708Z,88.77
2018-12-17T23:04:59.113Z,83.13
2018-12-17T23:07:28.785Z,58.30
2018-12-17T23:10:09.107Z,55.90
2018-12-17T23:12:49.489Z,107.53
2018-12-17T23:15:29.868Z,99.20
2018-12-17T23:18:00.185Z,58.53
2018-12-17T23:20:29.861Z,43.60
2018-12-17T23:22:59.902Z,44.07
2018-12-17T23:25:29.319Z,38.67
2018-12-17T23:27:58.679Z,41.50
2018-12-17T23:30:27.866Z,47.77
2018-12-17T23:32:59.164Z,49.20
2018-12-17T23:35:28.656Z,55.53
2018-12-17T23:37:58.201Z,49.17
2018-12-17T23:40:27.469Z,40.97
2018-12-17T23:42:57.065Z,44.60
2018-12-17T23:45:26.577Z,46.70
2018-12-17T23:47:56.181Z,42.50
2018-12-17T23:50:25.881Z,43.77
2018-12-17T23:52:55.697Z,45.07
2018-12-17T23:55:25.738Z,43.23
2018-12-17T23:57:55.622Z,45.00
